Saint Louis, Missouri
Traffic Map
Current Weather Conditions
Saint Louis, Missouri
Clear
Clear
17°
Feels Like: 17°
Wind Chill: 17° Ceiling: Unl
Heat Index: 17° Visibility: 10mi
Dew Point: Wind: 7mph
Humidity: 50% Direction: 130° (SE)
Pressure: 30.18in Gusts: 0mph
Raw Report DataKCPS 200253Z AUTO 13006KT 10SM CLR 17/06 A3018 RMK AO2 SLP217 T01670061 53005
Traffic Incident Summary
Active as of:
Severity:
Category:
InformationThere was an issue retrieving the traffic information for this location. Please try a different location or try again shortly.
Advertisements
At Last! Intellicast now available for iPhone and Android